sensor_id;sensor_type;location;lat;lon;timestamp;pressure;altitude;pressure_sealevel;temperature;humidity
11856;BME280;5987;53.140;8.904;2023-03-11T00:03:05;100068.25;;;-1.25;100.00
11856;BME280;5987;53.140;8.904;2023-03-11T00:06:10;100081.16;;;-1.25;100.00
11856;BME280;5987;53.140;8.904;2023-03-11T00:09:14;100090.56;;;-1.27;100.00
11856;BME280;5987;53.140;8.904;2023-03-11T00:12:17;100089.72;;;-1.29;100.00
11856;BME280;5987;53.140;8.904;2023-03-11T00:15:22;100097.47;;;-1.30;100.00
11856;BME280;5987;53.140;8.904;2023-03-11T00:18:28;100120.63;;;-1.29;100.00
11856;BME280;5987;53.140;8.904;2023-03-11T00:21:32;100119.78;;;-1.45;100.00
11856;BME280;5987;53.140;8.904;2023-03-11T00:24:36;100129.19;;;-1.48;100.00
11856;BME280;5987;53.140;8.904;2023-03-11T00:27:40;100136.03;;;-1.53;100.00
11856;BME280;5987;53.140;8.904;2023-03-11T00:30:45;100137.78;;;-1.56;100.00
11856;BME280;5987;53.140;8.904;2023-03-11T00:33:49;100137.78;;;-1.59;100.00
11856;BME280;5987;53.140;8.904;2023-03-11T00:36:53;100138.63;;;-1.58;100.00
11856;BME280;5987;53.140;8.904;2023-03-11T00:39:58;100148.94;;;-1.63;100.00
11856;BME280;5987;53.140;8.904;2023-03-11T00:43:02;100158.34;;;-1.65;100.00
11856;BME280;5987;53.140;8.904;2023-03-11T00:46:08;100161.78;;;-1.57;100.00
11856;BME280;5987;53.140;8.904;2023-03-11T00:49:12;100175.53;;;-1.53;100.00
11856;BME280;5987;53.140;8.904;2023-03-11T00:52:16;100185.00;;;-1.50;100.00
11856;BME280;5987;53.140;8.904;2023-03-11T00:55:22;100174.69;;;-1.50;100.00
11856;BME280;5987;53.140;8.904;2023-03-11T00:58:29;100174.66;;;-1.57;100.00
11856;BME280;5987;53.140;8.904;2023-03-11T01:01:35;100188.38;;;-1.58;100.00
11856;BME280;5987;53.140;8.904;2023-03-11T01:04:39;100197.88;;;-1.50;100.00
11856;BME280;5987;53.140;8.904;2023-03-11T01:07:43;100200.41;;;-1.53;100.00
11856;BME280;5987;53.140;8.904;2023-03-11T01:10:46;100200.44;;;-1.49;100.00
11856;BME280;5987;53.140;8.904;2023-03-11T01:13:50;100206.44;;;-1.48;100.00
11856;BME280;5987;53.140;8.904;2023-03-11T01:16:55;100208.16;;;-1.44;100.00
11856;BME280;5987;53.140;8.904;2023-03-11T01:19:59;100220.19;;;-1.43;100.00
11856;BME280;5987;53.140;8.904;2023-03-11T01:23:02;100230.50;;;-1.40;100.00
11856;BME280;5987;53.140;8.904;2023-03-11T01:26:06;100225.34;;;-1.32;100.00
11856;BME280;5987;53.140;8.904;2023-03-11T01:29:10;100227.06;;;-1.39;100.00
11856;BME280;5987;53.140;8.904;2023-03-11T01:32:15;100239.06;;;-1.36;100.00
11856;BME280;5987;53.140;8.904;2023-03-11T01:35:22;100241.63;;;-1.36;100.00
11856;BME280;5987;53.140;8.904;2023-03-11T01:38:26;100247.66;;;-1.33;100.00
11856;BME280;5987;53.140;8.904;2023-03-11T01:41:29;100251.09;;;-1.31;100.00
11856;BME280;5987;53.140;8.904;2023-03-11T01:44:33;100268.28;;;-1.30;100.00
11856;BME280;5987;53.140;8.904;2023-03-11T01:47:40;100269.13;;;-1.37;100.00
11856;BME280;5987;53.140;8.904;2023-03-11T01:50:47;100275.94;;;-1.45;100.00
11856;BME280;5987;53.140;8.904;2023-03-11T01:53:53;100287.13;;;-1.45;100.00
11856;BME280;5987;53.140;8.904;2023-03-11T01:57:01;100286.25;;;-1.45;100.00
11856;BME280;5987;53.140;8.904;2023-03-11T02:00:10;100297.44;;;-1.45;100.00
11856;BME280;5987;53.140;8.904;2023-03-11T02:03:25;100300.84;;;-1.41;100.00
11856;BME280;5987;53.140;8.904;2023-03-11T02:06:31;100290.56;;;-1.46;100.00
11856;BME280;5987;53.140;8.904;2023-03-11T02:09:36;100299.13;;;-1.45;100.00
11856;BME280;5987;53.140;8.904;2023-03-11T02:12:40;100300.00;;;-1.45;100.00
11856;BME280;5987;53.140;8.904;2023-03-11T02:15:45;100303.38;;;-1.53;100.00
11856;BME280;5987;53.140;8.904;2023-03-11T02:18:50;100304.22;;;-1.58;100.00
11856;BME280;5987;53.140;8.904;2023-03-11T02:21:55;100319.66;;;-1.58;100.00
11856;BME280;5987;53.140;8.904;2023-03-11T02:25:04;100323.97;;;-1.55;100.00
11856;BME280;5987;53.140;8.904;2023-03-11T02:28:14;100326.59;;;-1.47;100.00
11856;BME280;5987;53.140;8.904;2023-03-11T02:31:21;100322.28;;;-1.45;100.00
11856;BME280;5987;53.140;8.904;2023-03-11T02:34:28;100327.44;;;-1.48;100.00
11856;BME280;5987;53.140;8.904;2023-03-11T02:37:32;100336.88;;;-1.47;100.00
11856;BME280;5987;53.140;8.904;2023-03-11T02:40:49;100336.91;;;-1.41;100.00
11856;BME280;5987;53.140;8.904;2023-03-11T02:43:55;100324.03;;;-1.46;100.00
11856;BME280;5987;53.140;8.904;2023-03-11T02:47:00;100324.84;;;-1.51;100.00
11856;BME280;5987;53.140;8.904;2023-03-11T02:50:06;100343.72;;;-1.52;100.00
11856;BME280;5987;53.140;8.904;2023-03-11T02:53:12;100344.56;;;-1.55;100.00
11856;BME280;5987;53.140;8.904;2023-03-11T02:56:16;100341.97;;;-1.60;100.00
11856;BME280;5987;53.140;8.904;2023-03-11T02:59:21;100350.53;;;-1.64;100.00
11856;BME280;5987;53.140;8.904;2023-03-11T03:02:25;100351.34;;;-1.74;100.00
11856;BME280;5987;53.140;8.904;2023-03-11T03:05:28;100348.72;;;-1.80;100.00
11856;BME280;5987;53.140;8.904;2023-03-11T03:08:32;100352.13;;;-1.86;100.00
11856;BME280;5987;53.140;8.904;2023-03-11T03:11:36;100358.09;;;-1.93;100.00
11856;BME280;5987;53.140;8.904;2023-03-11T03:14:41;100368.38;;;-1.95;100.00
11856;BME280;5987;53.140;8.904;2023-03-11T03:17:45;100358.97;;;-1.91;100.00
11856;BME280;5987;53.140;8.904;2023-03-11T03:20:49;100365.81;;;-1.88;100.00
11856;BME280;5987;53.140;8.904;2023-03-11T03:23:53;100380.41;;;-1.86;100.00
11856;BME280;5987;53.140;8.904;2023-03-11T03:26:56;100382.22;;;-1.77;100.00
11856;BME280;5987;53.140;8.904;2023-03-11T03:30:03;100383.13;;;-1.66;100.00
11856;BME280;5987;53.140;8.904;2023-03-11T03:33:07;100384.88;;;-1.62;100.00
11856;BME280;5987;53.140;8.904;2023-03-11T03:36:13;100402.03;;;-1.58;100.00
11856;BME280;5987;53.140;8.904;2023-03-11T03:39:17;100398.69;;;-1.50;100.00
11856;BME280;5987;53.140;8.904;2023-03-11T03:42:21;100407.25;;;-1.50;100.00
11856;BME280;5987;53.140;8.904;2023-03-11T03:45:27;100413.22;;;-1.54;100.00
11856;BME280;5987;53.140;8.904;2023-03-11T03:48:32;100419.28;;;-1.50;100.00
11856;BME280;5987;53.140;8.904;2023-03-11T03:51:35;100423.53;;;-1.56;100.00
11856;BME280;5987;53.140;8.904;2023-03-11T03:54:39;100427.78;;;-1.59;100.00
11856;BME280;5987;53.140;8.904;2023-03-11T03:57:43;100427.78;;;-1.59;100.00
11856;BME280;5987;53.140;8.904;2023-03-11T04:00:48;100422.63;;;-1.58;100.00
11856;BME280;5987;53.140;8.904;2023-03-11T04:03:52;100434.69;;;-1.52;100.00
11856;BME280;5987;53.140;8.904;2023-03-11T04:06:55;100439.00;;;-1.48;100.00
11856;BME280;5987;53.140;8.904;2023-03-11T04:09:59;100446.78;;;-1.43;100.00
11856;BME280;5987;53.140;8.904;2023-03-11T04:13:03;100449.34;;;-1.45;100.00
11856;BME280;5987;53.140;8.904;2023-03-11T04:16:14;100456.19;;;-1.45;100.00
11856;BME280;5987;53.140;8.904;2023-03-11T04:19:19;100465.63;;;-1.44;100.00
11856;BME280;5987;53.140;8.904;2023-03-11T04:22:22;100458.75;;;-1.47;100.00
11856;BME280;5987;53.140;8.904;2023-03-11T04:25:26;100463.91;;;-1.42;100.00
11856;BME280;5987;53.140;8.904;2023-03-11T04:28:30;100477.63;;;-1.46;100.00
11856;BME280;5987;53.140;8.904;2023-03-11T04:31:35;100474.19;;;-1.51;100.00
11856;BME280;5987;53.140;8.904;2023-03-11T04:34:39;100472.41;;;-1.62;100.00
11856;BME280;5987;53.140;8.904;2023-03-11T04:37:43;100472.31;;;-1.74;100.00
11856;BME280;5987;53.140;8.904;2023-03-11T04:40:47;100475.69;;;-1.81;100.00
11856;BME280;5987;53.140;8.904;2023-03-11T04:43:50;100480.72;;;-1.94;100.00
11856;BME280;5987;53.140;8.904;2023-03-11T04:46:55;100484.03;;;-2.04;100.00
11856;BME280;5987;53.140;8.904;2023-03-11T04:49:59;100499.44;;;-2.07;100.00
11856;BME280;5987;53.140;8.904;2023-03-11T04:53:02;100499.44;;;-2.07;100.00
11856;BME280;5987;53.140;8.904;2023-03-11T04:56:07;100498.63;;;-2.04;100.00
11856;BME280;5987;53.140;8.904;2023-03-11T04:59:10;100499.56;;;-1.98;100.00
11856;BME280;5987;53.140;8.904;2023-03-11T05:02:15;100509.06;;;-1.87;100.00
11856;BME280;5987;53.140;8.904;2023-03-11T05:05:19;100521.94;;;-1.87;100.00
11856;BME280;5987;53.140;8.904;2023-03-11T05:08:23;100522.88;;;-1.79;100.00
11856;BME280;5987;53.140;8.904;2023-03-11T05:11:27;100522.03;;;-1.75;100.00
11856;BME280;5987;53.140;8.904;2023-03-11T05:14:30;100538.31;;;-1.76;100.00
11856;BME280;5987;53.140;8.904;2023-03-11T05:17:35;100537.38;;;-1.87;100.00
11856;BME280;5987;53.140;8.904;2023-03-11T05:20:39;100543.34;;;-1.90;100.00
11856;BME280;5987;53.140;8.904;2023-03-11T05:23:43;100541.69;;;-1.86;100.00
11856;BME280;5987;53.140;8.904;2023-03-11T05:26:47;100544.34;;;-1.77;100.00
11856;BME280;5987;53.140;8.904;2023-03-11T05:29:50;100543.34;;;-1.88;100.00
11856;BME280;5987;53.140;8.904;2023-03-11T05:32:55;100554.41;;;-1.99;100.00
11856;BME280;5987;53.140;8.904;2023-03-11T05:36:04;100560.28;;;-2.14;100.00
11856;BME280;5987;53.140;8.904;2023-03-11T05:39:08;100559.31;;;-2.23;100.00
11856;BME280;5987;53.140;8.904;2023-03-11T05:42:12;100567.78;;;-2.32;100.00
11856;BME280;5987;53.140;8.904;2023-03-11T05:45:16;100576.28;;;-2.36;100.00
11856;BME280;5987;53.140;8.904;2023-03-11T05:48:21;100588.25;;;-2.42;100.00
11856;BME280;5987;53.140;8.904;2023-03-11T05:51:25;100592.41;;;-2.51;100.00
11856;BME280;5987;53.140;8.904;2023-03-11T05:54:29;100605.16;;;-2.58;100.00
11856;BME280;5987;53.140;8.904;2023-03-11T05:57:32;100606.03;;;-2.59;100.00
11856;BME280;5987;53.140;8.904;2023-03-11T06:00:36;100618.75;;;-2.68;100.00
11856;BME280;5987;53.140;8.904;2023-03-11T06:03:42;100617.06;;;-2.66;100.00
11856;BME280;5987;53.140;8.904;2023-03-11T06:06:46;100620.38;;;-2.73;100.00
11856;BME280;5987;53.140;8.904;2023-03-11T06:09:50;100620.34;;;-2.76;100.00
11856;BME280;5987;53.140;8.904;2023-03-11T06:12:54;100621.25;;;-2.72;100.00
11856;BME280;5987;53.140;8.904;2023-03-11T06:15:58;100632.31;;;-2.78;100.00
11856;BME280;5987;53.140;8.904;2023-03-11T06:19:03;100644.38;;;-2.74;100.00
11856;BME280;5987;53.140;8.904;2023-03-11T06:22:07;100646.06;;;-2.74;100.00
11856;BME280;5987;53.140;8.904;2023-03-11T06:25:10;100648.72;;;-2.68;100.00
11856;BME280;5987;53.140;8.904;2023-03-11T06:28:15;100651.31;;;-2.67;100.00
11856;BME280;5987;53.140;8.904;2023-03-11T06:31:21;100659.09;;;-2.62;100.00
11856;BME280;5987;53.140;8.904;2023-03-11T06:34:27;100666.81;;;-2.59;100.00
11856;BME280;5987;53.140;8.904;2023-03-11T06:37:34;100664.28;;;-2.58;100.00
11856;BME280;5987;53.140;8.904;2023-03-11T06:40:38;100673.94;;;-2.41;100.00
11856;BME280;5987;53.140;8.904;2023-03-11T06:43:42;100681.97;;;-2.18;100.00
11856;BME280;5987;53.140;8.904;2023-03-11T06:46:45;100670.31;;;-1.90;100.00
11856;BME280;5987;53.140;8.904;2023-03-11T06:49:51;100674.09;;;-1.55;100.00
11856;BME280;5987;53.140;8.904;2023-03-11T06:52:55;100689.72;;;-1.36;100.00
11856;BME280;5987;53.140;8.904;2023-03-11T06:56:02;100689.81;;;-1.29;100.00
11856;BME280;5987;53.140;8.904;2023-03-11T06:59:05;100689.50;;;-1.58;100.00
11856;BME280;5987;53.140;8.904;2023-03-11T07:02:12;100693.56;;;-1.80;100.00
11856;BME280;5987;53.140;8.904;2023-03-11T07:05:17;100698.78;;;-1.76;100.00
11856;BME280;5987;53.140;8.904;2023-03-11T07:08:23;100711.56;;;-1.82;100.00
11856;BME280;5987;53.140;8.904;2023-03-11T07:11:27;100714.25;;;-1.71;100.00
11856;BME280;5987;53.140;8.904;2023-03-11T07:14:31;100726.31;;;-1.67;100.00
11856;BME280;5987;53.140;8.904;2023-03-11T07:17:34;100728.25;;;-1.47;100.00
11856;BME280;5987;53.140;8.904;2023-03-11T07:20:39;100732.59;;;-1.43;100.00
11856;BME280;5987;53.140;8.904;2023-03-11T07:23:43;100734.69;;;-1.02;100.00
11856;BME280;5987;53.140;8.904;2023-03-11T07:26:47;100741.63;;;-0.96;100.00
11856;BME280;5987;53.140;8.904;2023-03-11T07:29:51;100746.13;;;-0.72;100.00
11856;BME280;5987;53.140;8.904;2023-03-11T07:32:55;100747.59;;;-1.00;100.00
11856;BME280;5987;53.140;8.904;2023-03-11T07:36:06;100744.88;;;-1.14;100.00
11856;BME280;5987;53.140;8.904;2023-03-11T07:39:14;100755.06;;;-1.27;100.00
11856;BME280;5987;53.140;8.904;2023-03-11T07:42:19;100756.66;;;-1.40;100.00
11856;BME280;5987;53.140;8.904;2023-03-11T07:45:23;100762.94;;;-1.14;100.00
11856;BME280;5987;53.140;8.904;2023-03-11T07:48:27;100771.50;;;-1.15;100.00
11856;BME280;5987;53.140;8.904;2023-03-11T07:51:34;100780.97;;;-1.11;100.00
11856;BME280;5987;53.140;8.904;2023-03-11T07:54:39;100781.75;;;-1.22;100.00
11856;BME280;5987;53.140;8.904;2023-03-11T07:57:42;100783.47;;;-1.24;100.00
11856;BME280;5987;53.140;8.904;2023-03-11T08:00:46;100787.88;;;-1.09;100.00
11856;BME280;5987;53.140;8.904;2023-03-11T08:03:52;100791.25;;;-1.17;100.00
11856;BME280;5987;53.140;8.904;2023-03-11T08:06:59;100797.22;;;-1.18;100.00
11856;BME280;5987;53.140;8.904;2023-03-11T08:10:03;100804.25;;;-1.05;100.00
11856;BME280;5987;53.140;8.904;2023-03-11T08:13:07;100801.75;;;-0.97;100.00
11856;BME280;5987;53.140;8.904;2023-03-11T08:16:13;100814.28;;;-1.30;100.00
11856;BME280;5987;53.140;8.904;2023-03-11T08:19:17;100824.88;;;-1.05;100.00
11856;BME280;5987;53.140;8.904;2023-03-11T08:22:22;100821.63;;;-0.85;100.00
11856;BME280;5987;53.140;8.904;2023-03-11T08:25:26;100828.78;;;-0.54;100.00
11856;BME280;5987;53.140;8.904;2023-03-11T08:28:30;100833.88;;;-0.63;100.00
11856;BME280;5987;53.140;8.904;2023-03-11T08:31:34;100833.25;;;-0.32;100.00
11856;BME280;5987;53.140;8.904;2023-03-11T08:34:37;100836.59;;;-0.47;100.00
11856;BME280;5987;53.140;8.904;2023-03-11T08:37:43;100838.63;;;-0.05;100.00
11856;BME280;5987;53.140;8.904;2023-03-11T08:40:46;100841.91;;;-0.27;100.00
11856;BME280;5987;53.140;8.904;2023-03-11T08:43:50;100842.56;;;-0.52;100.00
11856;BME280;5987;53.140;8.904;2023-03-11T08:46:54;100849.41;;;-0.55;100.00
11856;BME280;5987;53.140;8.904;2023-03-11T08:49:58;100844.56;;;-0.20;100.00
11856;BME280;5987;53.140;8.904;2023-03-11T08:53:03;100853.81;;;-0.42;100.00
11856;BME280;5987;53.140;8.904;2023-03-11T08:56:07;100854.94;;;-0.06;100.00
11856;BME280;5987;53.140;8.904;2023-03-11T08:59:11;100858.47;;;0.04;100.00
11856;BME280;5987;53.140;8.904;2023-03-11T09:02:14;100866.16;;;-0.02;100.00
11856;BME280;5987;53.140;8.904;2023-03-11T09:05:18;100870.50;;;0.02;100.00
11856;BME280;5987;53.140;8.904;2023-03-11T09:08:23;100866.19;;;0.03;100.00
11856;BME280;5987;53.140;8.904;2023-03-11T09:11:27;100875.75;;;0.11;100.00
11856;BME280;5987;53.140;8.904;2023-03-11T09:14:30;100883.53;;;0.24;100.00
11856;BME280;5987;53.140;8.904;2023-03-11T09:17:34;100870.53;;;0.10;100.00
11856;BME280;5987;53.140;8.904;2023-03-11T09:20:38;100875.25;;;0.80;100.00
11856;BME280;5987;53.140;8.904;2023-03-11T09:23:43;100882.06;;;0.67;100.00
11856;BME280;5987;53.140;8.904;2023-03-11T09:26:47;100887.19;;;0.55;100.00
11856;BME280;5987;53.140;8.904;2023-03-11T09:29:50;100882.03;;;0.54;100.00
11856;BME280;5987;53.140;8.904;2023-03-11T09:32:54;100882.84;;;0.49;100.00
11856;BME280;5987;53.140;8.904;2023-03-11T09:35:58;100882.94;;;0.71;100.00
11856;BME280;5987;53.140;8.904;2023-03-11T09:39:03;100883.84;;;0.73;100.00
11856;BME280;5987;53.140;8.904;2023-03-11T09:42:18;100884.63;;;0.67;100.00
11856;BME280;5987;53.140;8.904;2023-03-11T09:45:27;100887.97;;;0.46;100.00
11856;BME280;5987;53.140;8.904;2023-03-11T09:48:37;100894.94;;;0.57;100.00
11856;BME280;5987;53.140;8.904;2023-03-11T09:51:51;100893.22;;;0.62;100.00
11856;BME280;5987;53.140;8.904;2023-03-11T09:55:02;100893.19;;;0.53;100.00
11856;BME280;5987;53.140;8.904;2023-03-11T09:58:20;100892.47;;;0.81;100.00
11856;BME280;5987;53.140;8.904;2023-03-11T10:01:28;100893.50;;;1.33;100.00
11856;BME280;5987;53.140;8.904;2023-03-11T10:04:53;100890.88;;;1.20;100.00
11856;BME280;5987;53.140;8.904;2023-03-11T10:08:04;100896.06;;;1.25;100.00
11856;BME280;5987;53.140;8.904;2023-03-11T10:11:42;100895.16;;;1.06;100.00
11856;BME280;5987;53.140;8.904;2023-03-11T10:18:43;100904.69;;;1.33;100.00
11856;BME280;5987;53.140;8.904;2023-03-11T10:22:01;100903.00;;;1.42;100.00
11856;BME280;5987;53.140;8.904;2023-03-11T10:25:15;100899.47;;;1.16;100.00
11856;BME280;5987;53.140;8.904;2023-03-11T10:28:26;100909.81;;;1.06;100.00
11856;BME280;5987;53.140;8.904;2023-03-11T10:31:39;100908.16;;;1.34;100.00
11856;BME280;5987;53.140;8.904;2023-03-11T10:34:54;100913.25;;;1.05;100.00
11856;BME280;5987;53.140;8.904;2023-03-11T10:38:06;100915.88;;;1.15;100.00
11856;BME280;5987;53.140;8.904;2023-03-11T10:41:20;100917.56;;;1.13;100.00
11856;BME280;5987;53.140;8.904;2023-03-11T10:44:33;100920.13;;;1.01;100.00
11856;BME280;5987;53.140;8.904;2023-03-11T10:47:36;100917.56;;;1.07;100.00
11856;BME280;5987;53.140;8.904;2023-03-11T10:50:49;100910.66;;;1.06;100.00
11856;BME280;5987;53.140;8.904;2023-03-11T10:53:57;100925.38;;;1.24;100.00
11856;BME280;5987;53.140;8.904;2023-03-11T10:57:04;100921.09;;;1.34;100.00
11856;BME280;5987;53.140;8.904;2023-03-11T11:00:27;100920.22;;;1.26;100.00
11856;BME280;5987;53.140;8.904;2023-03-11T11:03:32;100918.53;;;1.57;100.00
11856;BME280;5987;53.140;8.904;2023-03-11T11:06:37;100915.06;;;1.49;100.00
11856;BME280;5987;53.140;8.904;2023-03-11T11:09:40;100922.84;;;1.38;100.00
11856;BME280;5987;53.140;8.904;2023-03-11T11:12:56;100924.63;;;1.82;100.00
11856;BME280;5987;53.140;8.904;2023-03-11T11:16:05;100925.47;;;1.72;100.00
11856;BME280;5987;53.140;8.904;2023-03-11T11:19:20;100917.72;;;1.84;100.00
11856;BME280;5987;53.140;8.904;2023-03-11T11:22:25;100922.00;;;1.65;100.00
11856;BME280;5987;53.140;8.904;2023-03-11T11:25:33;100929.78;;;1.82;100.00
11856;BME280;5987;53.140;8.904;2023-03-11T11:28:37;100923.75;;;1.80;100.00
11856;BME280;5987;53.140;8.904;2023-03-11T11:31:44;100923.78;;;1.94;100.00
11856;BME280;5987;53.140;8.904;2023-03-11T11:35:00;100924.63;;;1.79;100.00
11856;BME280;5987;53.140;8.904;2023-03-11T11:38:08;100922.03;;;1.99;100.00
11856;BME280;5987;53.140;8.904;2023-03-11T11:41:17;100921.16;;;1.93;100.00
11856;BME280;5987;53.140;8.904;2023-03-11T11:44:33;100914.25;;;1.82;100.00
11856;BME280;5987;53.140;8.904;2023-03-11T11:47:42;100912.56;;;2.00;100.00
11856;BME280;5987;53.140;8.904;2023-03-11T11:50:51;100910.81;;;1.83;100.00
11856;BME280;5987;53.140;8.904;2023-03-11T11:54:01;100909.06;;;2.01;100.00
11856;BME280;5987;53.140;8.904;2023-03-11T11:57:11;100920.28;;;2.11;100.00
11856;BME280;5987;53.140;8.904;2023-03-11T12:00:20;100914.28;;;2.07;100.00
11856;BME280;5987;53.140;8.904;2023-03-11T12:07:44;100913.31;;;2.51;100.00
11856;BME280;5987;53.140;8.904;2023-03-11T12:10:58;100915.06;;;2.55;100.00
11856;BME280;5987;53.140;8.904;2023-03-11T12:14:11;100915.94;;;2.48;100.00
11856;BME280;5987;53.140;8.904;2023-03-11T12:17:19;100912.44;;;2.58;100.00
11856;BME280;5987;53.140;8.904;2023-03-11T12:20:31;100915.91;;;2.61;100.00
11856;BME280;5987;53.140;8.904;2023-03-11T12:23:55;100915.88;;;2.73;100.00
11856;BME280;5987;53.140;8.904;2023-03-11T12:27:14;100915.88;;;2.76;100.00
11856;BME280;5987;53.140;8.904;2023-03-11T12:30:25;100906.41;;;2.67;100.00
11856;BME280;5987;53.140;8.904;2023-03-11T12:33:35;100921.09;;;2.61;100.00
11856;BME280;5987;53.140;8.904;2023-03-11T12:36:44;100920.19;;;2.71;100.00
11856;BME280;5987;53.140;8.904;2023-03-11T12:39:48;100921.03;;;2.79;100.00
11856;BME280;5987;53.140;8.904;2023-03-11T12:42:52;100926.28;;;2.48;100.00
11856;BME280;5987;53.140;8.904;2023-03-11T12:45:56;100924.53;;;2.70;100.00
11856;BME280;5987;53.140;8.904;2023-03-11T12:49:11;100927.09;;;2.73;100.00
11856;BME280;5987;53.140;8.904;2023-03-11T12:52:24;100927.13;;;2.60;100.00
11856;BME280;5987;53.140;8.904;2023-03-11T12:55:34;100923.56;;;2.95;100.00
11856;BME280;5987;53.140;8.904;2023-03-11T12:59:09;100930.56;;;2.69;100.00
11856;BME280;5987;53.140;8.904;2023-03-11T13:02:40;100924.47;;;2.78;100.00
11856;BME280;5987;53.140;8.904;2023-03-11T13:06:04;100921.03;;;2.79;100.00
11856;BME280;5987;53.140;8.904;2023-03-11T13:09:16;100926.22;;;2.70;100.00
11856;BME280;5987;53.140;8.904;2023-03-11T13:12:42;100925.34;;;2.82;100.00
11856;BME280;5987;53.140;8.904;2023-03-11T13:15:46;100932.25;;;2.81;100.00
11856;BME280;5987;53.140;8.904;2023-03-11T13:18:51;100936.56;;;2.91;100.00
11856;BME280;5987;53.140;8.904;2023-03-11T13:21:56;100932.28;;;2.83;100.00
11856;BME280;5987;53.140;8.904;2023-03-11T13:25:28;100930.53;;;2.83;100.00
11856;BME280;5987;53.140;8.904;2023-03-11T13:28:54;100939.19;;;2.70;100.00
11856;BME280;5987;53.140;8.904;2023-03-11T13:32:32;100944.38;;;2.76;100.00
11856;BME280;5987;53.140;8.904;2023-03-11T13:35:57;100940.94;;;2.79;100.00
11856;BME280;5987;53.140;8.904;2023-03-11T13:39:23;100938.28;;;2.92;100.00
11856;BME280;5987;53.140;8.904;2023-03-11T13:42:39;100946.09;;;2.75;100.00
11856;BME280;5987;53.140;8.904;2023-03-11T13:46:03;100948.72;;;2.68;100.00
11856;BME280;5987;53.140;8.904;2023-03-11T13:49:23;100949.56;;;2.71;100.00
11856;BME280;5987;53.140;8.904;2023-03-11T13:52:32;100946.06;;;2.88;100.00
11856;BME280;5987;53.140;8.904;2023-03-11T13:55:41;100948.66;;;2.89;100.00
11856;BME280;5987;53.140;8.904;2023-03-11T13:58:49;100945.25;;;2.75;100.00
11856;BME280;5987;53.140;8.904;2023-03-11T14:01:56;100953.84;;;2.94;100.00
11856;BME280;5987;53.140;8.904;2023-03-11T14:05:05;100945.16;;;2.95;100.00
11856;BME280;5987;53.140;8.904;2023-03-11T14:08:19;100949.50;;;2.93;100.00
11856;BME280;5987;53.140;8.904;2023-03-11T14:11:26;100954.78;;;2.65;100.00
11856;BME280;5987;53.140;8.904;2023-03-11T14:14:42;100948.66;;;2.88;100.00
11856;BME280;5987;53.140;8.904;2023-03-11T14:17:51;100953.72;;;3.26;100.00
11856;BME280;5987;53.140;8.904;2023-03-11T14:20:56;100951.94;;;3.32;100.00
11856;BME280;5987;53.140;8.904;2023-03-11T14:24:01;100958.03;;;3.23;100.00
11856;BME280;5987;53.140;8.904;2023-03-11T14:27:08;100958.09;;;3.14;100.00
11856;BME280;5987;53.140;8.904;2023-03-11T14:30:21;100961.50;;;3.22;100.00
11856;BME280;5987;53.140;8.904;2023-03-11T14:33:25;100952.06;;;3.04;100.00
11856;BME280;5987;53.140;8.904;2023-03-11T14:36:31;100963.28;;;3.14;100.00
11856;BME280;5987;53.140;8.904;2023-03-11T14:39:43;100958.16;;;2.98;100.00
11856;BME280;5987;53.140;8.904;2023-03-11T14:42:52;100959.03;;;2.92;100.00
11856;BME280;5987;53.140;8.904;2023-03-11T14:45:59;100963.31;;;2.95;100.00
11856;BME280;5987;53.140;8.904;2023-03-11T14:49:07;100961.53;;;3.17;100.00
11856;BME280;5987;53.140;8.904;2023-03-11T14:52:21;100965.88;;;3.14;100.00
11856;BME280;5987;53.140;8.904;2023-03-11T14:55:31;100969.38;;;3.00;100.00
11856;BME280;5987;53.140;8.904;2023-03-11T14:58:39;100962.47;;;3.04;100.00
11856;BME280;5987;53.140;8.904;2023-03-11T15:01:47;100969.38;;;3.02;100.00
11856;BME280;5987;53.140;8.904;2023-03-11T15:04:53;100972.88;;;2.82;100.00
11856;BME280;5987;53.140;8.904;2023-03-11T15:08:04;100965.13;;;2.79;100.00
11856;BME280;5987;53.140;8.904;2023-03-11T15:11:21;100960.78;;;2.83;100.00
11856;BME280;5987;53.140;8.904;2023-03-11T15:14:28;100960.75;;;2.90;100.00
11856;BME280;5987;53.140;8.904;2023-03-11T15:17:34;100958.19;;;2.80;100.00
11856;BME280;5987;53.140;8.904;2023-03-11T15:20:45;100959.94;;;2.71;100.00
11856;BME280;5987;53.140;8.904;2023-03-11T15:23:52;100965.13;;;2.73;100.00
11856;BME280;5987;53.140;8.904;2023-03-11T15:27:03;100962.53;;;2.78;100.00
11856;BME280;5987;53.140;8.904;2023-03-11T15:30:20;100952.16;;;2.71;100.00
11856;BME280;5987;53.140;8.904;2023-03-11T15:33:32;100963.41;;;2.66;100.00
11856;BME280;5987;53.140;8.904;2023-03-11T15:36:38;100958.25;;;2.60;100.00
11856;BME280;5987;53.140;8.904;2023-03-11T15:39:47;100955.66;;;2.60;100.00
11856;BME280;5987;53.140;8.904;2023-03-11T15:43:22;100947.00;;;2.61;100.00
11856;BME280;5987;53.140;8.904;2023-03-11T15:46:27;100954.81;;;2.57;100.00
11856;BME280;5987;53.140;8.904;2023-03-11T15:49:33;100953.94;;;2.48;100.00
11856;BME280;5987;53.140;8.904;2023-03-11T15:52:37;100957.38;;;2.54;100.00
11856;BME280;5987;53.140;8.904;2023-03-11T15:55:40;100956.50;;;2.66;100.00
11856;BME280;5987;53.140;8.904;2023-03-11T15:58:44;100960.84;;;2.56;100.00
11856;BME280;5987;53.140;8.904;2023-03-11T16:01:48;100963.44;;;2.52;100.00
11856;BME280;5987;53.140;8.904;2023-03-11T16:04:54;100963.44;;;2.47;100.00
11856;BME280;5987;53.140;8.904;2023-03-11T16:07:58;100968.59;;;2.50;100.00
11856;BME280;5987;53.140;8.904;2023-03-11T16:11:02;100979.84;;;2.57;100.00
11856;BME280;5987;53.140;8.904;2023-03-11T16:14:08;100964.31;;;2.40;100.00
11856;BME280;5987;53.140;8.904;2023-03-11T16:17:12;100965.19;;;2.34;100.00
11856;BME280;5987;53.140;8.904;2023-03-11T16:20:19;100966.91;;;2.34;100.00
11856;BME280;5987;53.140;8.904;2023-03-11T16:23:26;100973.84;;;2.22;100.00
11856;BME280;5987;53.140;8.904;2023-03-11T16:26:42;100979.88;;;2.09;100.00
11856;BME280;5987;53.140;8.904;2023-03-11T16:29:46;100979.03;;;2.05;100.00
11856;BME280;5987;53.140;8.904;2023-03-11T16:32:50;100988.50;;;1.99;100.00
11856;BME280;5987;53.140;8.904;2023-03-11T16:35:55;100991.09;;;1.94;100.00